Time;durP1;ratioP1;P1;durP2;ratioP2;P2;SDS_P1;SDS_P2;PMS_P1;PMS_P2;Temp;Humidity;BMP_temperature;BMP_pressure;BME280_temperature;BME280_humidity;BME280_pressure;Samples;Min_cycle;Max_cycle;Signal;HPM_P1;HPM_P2
2023/04/30 01:06:07;;;;;;;7.83;2.87;;;;;;;17.90;nan;101620.00;6104014;23;20426;-91
2023/04/30 01:21:16;;;;;;;6.20;2.00;;;;;;;17.85;nan;101628.13;5898888;24;20442;-87
2023/04/30 02:51:06;;;;;;;2.53;0.90;;;;;;;17.96;nan;101651.47;6094974;23;20381;-88
2023/04/30 02:54:34;;;;;;;6.83;1.77;;;;;;;17.95;nan;101658.06;6037010;23;20442;-87
2023/04/30 03:01:51;;;;;;;7.17;1.30;;;;;;;17.97;nan;101653.16;5914308;24;20400;-87
2023/04/30 03:32:03;;;;;;;7.10;2.17;;;;;;;17.92;nan;101628.91;5897785;24;20464;-88
2023/04/30 03:43:30;;;;;;;10.20;3.30;;;;;;;17.83;nan;101599.84;5925124;24;20396;-87
2023/04/30 05:41:29;;;;;;;8.90;1.80;;;;;;;17.73;nan;101513.72;5924972;24;20411;-88
2023/04/30 07:28:05;;;;;;;;;;;;;;;;;;;;;
2023/04/30 07:31:48;;;;;;;2.50;0.77;;;;;;;18.51;nan;101571.47;5867520;24;20413;-88
2023/04/30 08:05:32;;;;;;;4.43;1.07;;;;;;;19.95;nan;101563.47;6031012;23;20457;-88
2023/04/30 08:08:28;;;;;;;5.77;1.40;;;;;;;20.08;nan;101573.50;5995822;23;20541;-89
2023/04/30 08:12:11;;;;;;;9.97;1.97;;;;;;;20.13;nan;101562.56;5993284;23;20483;-88
2023/04/30 08:19:51;;;;;;;7.30;1.97;;;;;;;20.04;nan;101530.66;6038880;23;20432;-88
2023/04/30 08:22:35;;;;;;;14.57;2.33;;;;;;;20.20;nan;101552.22;6008125;23;20416;-88
2023/04/30 08:25:57;;;;;;;10.87;2.77;;;;;;;20.30;nan;101569.13;5933944;24;20509;-88
2023/04/30 08:36:36;;;;;;;6.93;2.67;;;;;;;20.25;nan;101579.22;5954030;24;20473;-87
2023/04/30 09:07:00;;;;;;;;;;;;;;;;;;;;;
2023/04/30 10:00:00;;;;;;;;;;;;;;;;;;;;;
2023/04/30 10:27:36;;;;;;;;;;;;;;;;;;;;;
2023/04/30 10:46:07;;;;;;;10.27;1.30;;;;;;;23.49;nan;101422.22;5791109;24;20471;-88
2023/04/30 10:48:59;;;;;;;5.03;1.83;;;;;;;23.52;nan;101414.19;5711987;25;20418;-88
2023/04/30 10:51:46;;;;;;;5.73;1.57;;;;;;;23.58;nan;101415.09;5701706;24;20415;-88
2023/04/30 10:58:56;;;;;;;5.67;1.60;;;;;;;23.80;nan;101401.91;5795506;24;20413;-88
2023/04/30 11:01:54;;;;;;;;;;;;;;;;;;;;;
2023/04/30 11:08:45;;;;;;;7.20;1.30;;;;;;;24.40;nan;101428.69;5870684;24;20442;-88
2023/04/30 11:12:36;;;;;;;4.70;1.30;;;;;;;24.44;nan;101413.03;5824723;24;20411;-89
2023/04/30 11:22:35;;;;;;;3.97;1.47;;;;;;;24.97;nan;101391.53;5837876;24;20460;-88
2023/04/30 11:25:18;;;;;;;6.97;1.77;;;;;;;25.08;nan;101396.03;5902575;24;20432;-88
2023/04/30 11:27:46;;;;;;;7.80;2.40;;;;;;;25.21;nan;101406.72;5931117;24;20494;-88
2023/04/30 11:31:14;;;;;;;7.93;2.07;;;;;;;25.23;nan;101410.06;5929819;24;20490;-87
2023/04/30 11:33:41;;;;;;;10.80;1.67;;;;;;;25.33;nan;101404.53;5847898;24;20510;-90
2023/04/30 11:36:36;;;;;;;17.10;2.00;;;;;;;25.30;nan;101415.41;5805975;24;20497;-89
2023/04/30 11:39:49;;;;;;;5.90;2.20;;;;;;;25.31;nan;101406.75;5973223;23;20426;-90
2023/04/30 11:42:52;;;;;;;7.97;2.03;;;;;;;25.40;nan;101405.06;5982071;23;20416;-90
2023/04/30 11:45:23;;;;;;;8.07;1.63;;;;;;;25.39;nan;101389.44;6007696;23;20424;-87
2023/04/30 11:48:27;;;;;;;11.30;2.60;;;;;;;25.55;nan;101383.84;6039357;23;20836;-89
2023/04/30 11:51:46;;;;;;;17.37;2.57;;;;;;;25.58;nan;101380.50;6060826;23;20411;-89
2023/04/30 11:54:25;;;;;;;9.17;2.07;;;;;;;25.56;nan;101374.34;6038375;23;20893;-88
2023/04/30 11:56:53;;;;;;;8.60;2.03;;;;;;;25.58;nan;101356.13;6042101;23;20470;-87
2023/04/30 11:59:24;;;;;;;6.77;1.80;;;;;;;25.65;nan;101355.88;6041390;23;20420;-88
2023/04/30 12:01:52;;;;;;;13.07;2.00;;;;;;;25.63;nan;101347.75;6041832;23;20467;-88
2023/04/30 12:04:20;;;;;;;13.30;2.30;;;;;;;25.66;nan;101352.78;6065258;23;20414;-88
2023/04/30 12:06:50;;;;;;;8.40;1.93;;;;;;;25.51;nan;101343.53;6042042;23;20423;-88
2023/04/30 12:09:18;;;;;;;11.30;2.07;;;;;;;25.48;nan;101351.34;6086555;23;20731;-88
2023/04/30 12:11:50;;;;;;;14.77;1.63;;;;;;;25.48;nan;101356.97;6164387;23;20411;-88
2023/04/30 12:14:17;;;;;;;7.60;2.03;;;;;;;25.43;nan;101351.34;6157519;23;20455;-88
2023/04/30 12:16:51;;;;;;;12.30;1.80;;;;;;;25.47;nan;101380.47;6135868;23;20470;-88
2023/04/30 12:19:26;;;;;;;11.60;1.80;;;;;;;25.45;nan;101371.50;6159769;23;20408;-88
2023/04/30 12:22:33;;;;;;;5.90;1.80;;;;;;;25.63;nan;101374.91;6135759;23;20407;-88
2023/04/30 12:28:50;;;;;;;11.70;2.43;;;;;;;25.66;nan;101360.34;6064560;23;20415;-90
2023/04/30 12:31:18;;;;;;;7.27;3.13;;;;;;;25.74;nan;101371.00;6019027;23;20412;-91
2023/04/30 12:34:34;;;;;;;6.77;2.47;;;;;;;25.65;nan;101364.28;5995731;23;20443;-91
2023/04/30 12:38:32;;;;;;;8.47;1.63;;;;;;;25.56;nan;101351.94;5925092;24;20445;-92
2023/04/30 12:41:31;;;;;;;12.83;1.97;;;;;;;25.51;nan;101349.13;5898661;24;20782;-92
2023/04/30 12:44:23;;;;;;;7.20;2.00;;;;;;;25.53;nan;101344.09;5911291;24;20422;-93
2023/04/30 12:47:06;;;;;;;8.47;1.63;;;;;;;25.55;nan;101365.09;5910412;24;20883;-93
2023/04/30 12:50:16;;;;;;;10.70;1.70;;;;;;;25.54;nan;101368.16;5913524;24;20410;-93
2023/04/30 12:53:01;;;;;;;7.97;2.33;;;;;;;25.45;nan;101377.09;5911019;24;20482;-92
2023/04/30 12:59:25;;;;;;;7.10;1.70;;;;;;;25.45;nan;101374.31;6010585;23;20399;-91
2023/04/30 13:33:11;;;;;;;8.40;1.70;;;;;;;25.57;nan;101343.25;6217751;23;20382;-90
2023/04/30 20:13:35;;;;;;;18.73;4.00;;;;;;;19.00;nan;101376.69;6217398;23;20409;-91
2023/04/30 20:16:04;;;;;;;16.20;3.67;;;;;;;18.92;nan;101388.91;6191352;23;20419;-91
2023/04/30 20:18:38;;;;;;;10.87;3.20;;;;;;;18.93;nan;101398.06;6143840;23;20423;-89
2023/04/30 20:21:07;;;;;;;14.00;3.60;;;;;;;18.91;nan;101397.44;6141644;23;20418;-88
2023/04/30 20:23:40;;;;;;;20.10;3.70;;;;;;;18.93;nan;101392.53;6143573;23;20781;-88
2023/04/30 20:26:12;;;;;;;14.90;3.53;;;;;;;18.95;nan;101395.91;6143749;23;20737;-88
2023/04/30 20:28:40;;;;;;;16.60;3.53;;;;;;;18.99;nan;101394.38;6166860;23;20417;-88
2023/04/30 20:31:08;;;;;;;14.93;4.23;;;;;;;18.90;nan;101404.06;6141540;23;20418;-88
2023/04/30 20:33:45;;;;;;;11.17;3.30;;;;;;;18.83;nan;101404.16;6169534;23;20438;-88
2023/04/30 20:36:19;;;;;;;23.17;4.23;;;;;;;18.81;nan;101394.41;6144744;23;20407;-88
2023/04/30 20:38:54;;;;;;;21.37;3.93;;;;;;;18.81;nan;101397.16;6166980;23;20415;-88
2023/04/30 20:41:27;;;;;;;16.10;3.87;;;;;;;18.79;nan;101404.88;6166289;23;20411;-88
2023/04/30 20:44:13;;;;;;;19.33;5.33;;;;;;;18.75;nan;101411.94;6174030;23;20422;-88
2023/04/30 20:46:42;;;;;;;15.53;3.43;;;;;;;18.73;nan;101414.09;6141277;23;20422;-88
2023/04/30 20:49:21;;;;;;;14.17;3.70;;;;;;;18.70;nan;101417.31;6171301;23;20411;-88
2023/04/30 20:51:51;;;;;;;17.13;3.80;;;;;;;18.69;nan;101412.84;6141915;23;20796;-88
2023/04/30 20:54:20;;;;;;;20.80;3.83;;;;;;;18.67;nan;101431.63;6143227;23;20439;-88
2023/04/30 20:56:55;;;;;;;12.80;3.30;;;;;;;18.71;nan;101428.16;6141873;23;20461;-88
2023/04/30 20:59:24;;;;;;;17.33;3.37;;;;;;;18.68;nan;101438.84;6167793;23;20481;-88
2023/04/30 21:01:51;;;;;;;17.70;4.33;;;;;;;18.65;nan;101442.94;6141472;23;20464;-88
2023/04/30 21:04:19;;;;;;;12.17;3.53;;;;;;;18.63;nan;101423.81;6165637;23;20411;-88
2023/04/30 21:06:47;;;;;;;19.73;3.87;;;;;;;18.61;nan;101434.25;6165464;23;20411;-88
2023/04/30 21:09:15;;;;;;;12.33;3.50;;;;;;;18.66;nan;101446.56;6140542;23;20419;-88
2023/04/30 21:11:43;;;;;;;14.47;4.57;;;;;;;18.67;nan;101435.22;6135617;23;20432;-87
2023/04/30 21:14:11;;;;;;;11.70;3.37;;;;;;;18.62;nan;101435.09;6047662;23;20498;-88
2023/04/30 21:16:39;;;;;;;22.33;4.43;;;;;;;18.58;nan;101442.13;6024465;23;20423;-88
2023/04/30 21:19:10;;;;;;;17.00;3.50;;;;;;;18.55;nan;101459.19;6048287;23;20419;-87
2023/04/30 21:21:39;;;;;;;16.73;4.30;;;;;;;18.57;nan;101438.53;6071509;23;20415;-87
2023/04/30 21:24:07;;;;;;;14.57;3.90;;;;;;;18.52;nan;101435.59;6048391;23;20422;-88
2023/04/30 21:26:35;;;;;;;22.83;4.87;;;;;;;18.51;nan;101438.56;6024565;23;20433;-87
2023/04/30 21:29:03;;;;;;;15.60;3.47;;;;;;;18.49;nan;101435.19;6047976;23;20425;-87
2023/04/30 21:31:32;;;;;;;29.50;4.57;;;;;;;18.49;nan;101438.81;6061615;23;20412;-87
2023/04/30 21:33:59;;;;;;;19.50;4.53;;;;;;;18.51;nan;101425.59;6111698;23;20415;-87
2023/04/30 21:36:28;;;;;;;15.57;4.20;;;;;;;18.50;nan;101426.66;6111768;23;20468;-87
2023/04/30 21:38:57;;;;;;;15.90;4.20;;;;;;;18.50;nan;101415.59;6112723;23;20779;-87
2023/04/30 21:41:36;;;;;;;26.70;4.10;;;;;;;18.50;nan;101421.13;6141272;23;20872;-87
2023/04/30 21:44:04;;;;;;;11.47;3.30;;;;;;;18.52;nan;101407.91;6111949;23;20752;-88
2023/04/30 21:46:32;;;;;;;17.80;3.67;;;;;;;18.56;nan;101427.66;6111652;23;20420;-88
2023/04/30 21:49:03;;;;;;;15.83;3.27;;;;;;;18.48;nan;101439.88;6113962;23;20813;-88
2023/04/30 21:51:35;;;;;;;16.60;3.93;;;;;;;18.50;nan;101439.66;6113659;23;20416;-88
2023/04/30 21:54:08;;;;;;;17.13;3.63;;;;;;;18.46;nan;101430.13;6138203;23;20454;-88
2023/04/30 21:56:39;;;;;;;18.90;4.03;;;;;;;18.47;nan;101438.19;6113167;23;20754;-88
2023/04/30 21:59:07;;;;;;;24.97;4.10;;;;;;;18.46;nan;101436.53;6112368;23;20473;-88
2023/04/30 22:01:37;;;;;;;15.43;3.73;;;;;;;18.46;nan;101447.59;6111801;23;20422;-88
2023/04/30 22:04:25;;;;;;;18.07;3.53;;;;;;;18.45;nan;101445.06;6144465;23;20752;-87
2023/04/30 22:06:53;;;;;;;13.53;3.60;;;;;;;18.45;nan;101429.28;6112024;23;20408;-87
2023/04/30 22:09:20;;;;;;;12.73;3.17;;;;;;;18.49;nan;101441.56;6111571;23;20899;-88
2023/04/30 22:11:48;;;;;;;16.87;3.40;;;;;;;18.43;nan;101425.91;6128518;23;20919;-88
2023/04/30 22:14:16;;;;;;;14.57;3.60;;;;;;;18.41;nan;101433.59;6134987;23;20448;-88
2023/04/30 22:16:44;;;;;;;18.47;4.10;;;;;;;18.44;nan;101421.22;6159872;23;20479;-88
2023/04/30 22:19:12;;;;;;;11.27;3.23;;;;;;;18.45;nan;101422.91;6135795;23;20952;-88
2023/04/30 22:21:40;;;;;;;22.20;4.00;;;;;;;18.52;nan;101435.59;6135557;23;20423;-88
2023/04/30 22:24:19;;;;;;;34.40;4.37;;;;;;;18.43;nan;101420.38;6137083;23;20733;-88
2023/04/30 22:26:47;;;;;;;20.70;4.33;;;;;;;18.41;nan;101416.13;6161363;23;20783;-89
2023/04/30 22:56:42;;;;;;;20.43;3.87;;;;;;;18.27;nan;101387.75;6066618;23;20827;-91
2023/04/30 23:56:28;;;;;;;22.23;3.20;;;;;;;18.32;nan;101362.97;6185438;23;20833;-88
